Time;durP1;ratioP1;P1;durP2;ratioP2;P2;SDS_P1;SDS_P2;PMS_P1;PMS_P2;Temp;Humidity;BMP_temperature;BMP_pressure;BME280_temperature;BME280_humidity;BME280_pressure;Samples;Min_cycle;Max_cycle;Signal;HPM_P1;HPM_P2
2023/02/07 00:02:16;;;;;;;2.50;1.83;;;-4.10;97.30;;;;;;5007417;28;20188;-84
2023/02/07 00:04:42;;;;;;;5.03;4.73;;;-4.20;97.30;;;;;;5006085;28;20240;-86
2023/02/07 00:07:07;;;;;;;12.70;3.67;;;-4.20;97.30;;;;;;5006376;28;20555;-86
2023/02/07 00:09:36;;;;;;;6.33;4.40;;;-4.30;97.30;;;;;;5024582;28;20192;-86
2023/02/07 00:12:02;;;;;;;3.97;3.57;;;-4.30;97.30;;;;;;5005484;28;20270;-86
2023/02/07 00:14:27;;;;;;;6.00;3.20;;;-4.40;97.30;;;;;;5024865;28;20906;-87
2023/02/07 00:16:52;;;;;;;1.60;1.50;;;-4.40;97.30;;;;;;5021615;28;20177;-86
2023/02/07 00:19:18;;;;;;;3.37;2.23;;;-4.40;97.30;;;;;;5009835;28;20187;-87
2023/02/07 00:21:43;;;;;;;21.97;2.73;;;-4.40;97.30;;;;;;5013101;28;20180;-87
2023/02/07 00:24:09;;;;;;;6.03;3.97;;;-4.40;97.30;;;;;;5014003;28;20193;-86
2023/02/07 00:26:34;;;;;;;4.93;2.07;;;-4.50;97.30;;;;;;5033992;28;20323;-87
2023/02/07 00:29:00;;;;;;;1.87;1.77;;;-4.50;97.30;;;;;;5048374;28;20237;-86
2023/02/07 00:31:29;;;;;;;6.70;4.90;;;-4.50;97.30;;;;;;5017161;28;20674;-86
2023/02/07 00:33:59;;;;;;;3.97;2.73;;;-4.50;97.30;;;;;;5016383;28;20187;-87
2023/02/07 00:36:27;;;;;;;8.07;4.67;;;-4.50;97.30;;;;;;5051981;28;20506;-87
2023/02/07 00:38:56;;;;;;;1.90;1.80;;;-4.50;97.30;;;;;;5016806;28;20493;-86
2023/02/07 00:41:22;;;;;;;3.23;2.90;;;-4.60;97.30;;;;;;5043600;28;20436;-87
2023/02/07 00:43:47;;;;;;;3.70;3.50;;;-4.60;97.30;;;;;;5024327;28;20860;-86
2023/02/07 00:46:14;;;;;;;3.13;2.23;;;-4.70;97.30;;;;;;5016286;28;20265;-86
2023/02/07 00:48:40;;;;;;;2.80;2.60;;;-4.70;97.30;;;;;;5019343;28;20198;-87
2023/02/07 00:51:06;;;;;;;5.27;3.00;;;-4.70;97.30;;;;;;5029789;28;20461;-87
2023/02/07 00:53:32;;;;;;;14.87;4.50;;;-4.70;97.30;;;;;;5018554;28;20184;-87
2023/02/07 00:55:57;;;;;;;2.70;2.50;;;-4.80;97.30;;;;;;5022943;28;20445;-87
2023/02/07 00:58:23;;;;;;;4.40;3.97;;;-4.80;97.30;;;;;;5017902;28;20850;-86
2023/02/07 01:00:49;;;;;;;13.77;4.30;;;-4.80;97.30;;;;;;5024334;28;20187;-87
2023/02/07 01:03:15;;;;;;;4.67;3.27;;;-4.90;97.30;;;;;;5018822;28;20480;-86
2023/02/07 01:05:43;;;;;;;6.57;3.57;;;-4.90;97.30;;;;;;5018316;28;20215;-87
2023/02/07 01:08:09;;;;;;;4.03;2.87;;;-4.80;97.30;;;;;;5027186;28;20462;-87
2023/02/07 01:10:37;;;;;;;5.50;3.93;;;-4.80;97.30;;;;;;5036806;28;20474;-87
2023/02/07 01:13:03;;;;;;;10.23;3.33;;;-4.80;97.30;;;;;;5025879;28;21011;-86
2023/02/07 01:15:28;;;;;;;4.73;3.93;;;-4.80;97.30;;;;;;5017463;28;20509;-87
2023/02/07 01:17:54;;;;;;;2.57;2.37;;;-4.90;97.30;;;;;;5026916;28;20562;-87
2023/02/07 01:20:19;;;;;;;3.53;3.33;;;-4.90;97.30;;;;;;5020465;28;20204;-85
2023/02/07 01:22:45;;;;;;;1.83;1.73;;;-4.90;97.30;;;;;;5033994;28;20275;-87
2023/02/07 01:25:10;;;;;;;3.90;3.70;;;-4.90;97.30;;;;;;5043046;28;20240;-87
2023/02/07 01:27:36;;;;;;;3.67;3.13;;;-4.90;97.30;;;;;;5016829;28;20192;-86
2023/02/07 01:30:02;;;;;;;7.10;4.80;;;-4.90;97.30;;;;;;5039967;28;20210;-87
2023/02/07 01:32:28;;;;;;;2.77;2.57;;;-4.90;97.30;;;;;;5027259;28;20187;-86
2023/02/07 01:34:53;;;;;;;4.80;4.50;;;-4.90;97.30;;;;;;5018320;28;20462;-86
2023/02/07 01:37:19;;;;;;;2.60;1.97;;;-5.00;97.30;;;;;;5015388;28;20700;-87
2023/02/07 01:39:45;;;;;;;2.70;2.50;;;-5.00;97.30;;;;;;5033530;28;20184;-87
2023/02/07 01:42:15;;;;;;;2.23;2.07;;;-5.00;97.30;;;;;;5020271;28;20214;-87
2023/02/07 01:44:41;;;;;;;3.00;2.77;;;-5.10;97.30;;;;;;5016491;28;20420;-87
2023/02/07 01:47:17;;;;;;;4.03;3.83;;;-5.10;97.30;;;;;;5020844;28;20427;-87
2023/02/07 01:49:43;;;;;;;6.73;4.23;;;-5.10;97.30;;;;;;5015380;28;20346;-85
2023/02/07 01:52:12;;;;;;;3.13;3.00;;;-5.20;97.30;;;;;;5016544;28;20550;-86
2023/02/07 01:54:39;;;;;;;1.53;1.43;;;-5.20;97.30;;;;;;5016135;28;20415;-87
2023/02/07 01:57:11;;;;;;;2.93;2.73;;;-5.30;97.30;;;;;;5016534;28;20420;-87
2023/02/07 01:59:37;;;;;;;4.80;2.60;;;-5.30;97.30;;;;;;5018503;28;20792;-86
2023/02/07 02:02:04;;;;;;;2.73;2.43;;;-5.30;97.30;;;;;;5021329;28;20430;-87
2023/02/07 02:04:30;;;;;;;3.70;2.90;;;-5.30;97.30;;;;;;5023268;28;20427;-87
2023/02/07 02:06:56;;;;;;;2.43;2.23;;;-5.30;97.30;;;;;;5015060;28;20426;-87
2023/02/07 02:09:23;;;;;;;3.10;2.90;;;-5.40;97.30;;;;;;5023630;28;20427;-86
2023/02/07 02:12:26;;;;;;;1.77;1.70;;;-5.40;97.30;;;;;;5020466;28;21059;-87
2023/02/07 02:14:54;;;;;;;8.03;5.73;;;-5.40;97.30;;;;;;5026566;28;20470;-87
2023/02/07 02:17:33;;;;;;;5.47;5.17;;;-5.40;97.30;;;;;;5033866;28;20484;-87
2023/02/07 02:20:09;;;;;;;2.20;2.03;;;-5.50;97.30;;;;;;5009760;28;20422;-87
2023/02/07 02:22:54;;;;;;;1.93;1.83;;;-5.50;97.30;;;;;;5007872;28;20415;-87
2023/02/07 02:25:34;;;;;;;7.07;5.43;;;-5.50;97.30;;;;;;5033996;28;20468;-87
2023/02/07 02:28:37;;;;;;;4.40;4.10;;;-5.50;97.30;;;;;;5009724;28;20450;-87
2023/02/07 02:31:33;;;;;;;20.43;4.37;;;-5.60;97.30;;;;;;5039422;28;20505;-87
2023/02/07 02:34:08;;;;;;;3.63;3.10;;;-5.60;97.30;;;;;;5030583;28;20451;-87
2023/02/07 02:37:05;;;;;;;2.53;2.37;;;-5.70;97.30;;;;;;5039231;28;20460;-87
2023/02/07 02:39:39;;;;;;;3.53;3.33;;;-5.70;97.30;;;;;;5045214;28;20437;-87
2023/02/07 02:42:17;;;;;;;2.33;2.13;;;-5.70;97.30;;;;;;5022674;28;20413;-87
2023/02/07 02:45:00;;;;;;;1.83;1.73;;;-5.80;97.30;;;;;;5016135;28;20418;-87
2023/02/07 02:47:28;;;;;;;3.80;2.27;;;-5.80;97.30;;;;;;5016031;28;20418;-86
2023/02/07 02:49:54;;;;;;;3.90;2.73;;;-5.80;97.30;;;;;;5023069;28;20506;-87
2023/02/07 02:52:19;;;;;;;10.73;2.20;;;-5.80;97.30;;;;;;5015603;28;20534;-87
2023/02/07 02:54:45;;;;;;;2.20;2.00;;;-5.90;97.30;;;;;;5017268;28;20265;-86
2023/02/07 02:57:37;;;;;;;1.73;1.67;;;-5.90;97.30;;;;;;5022928;28;20180;-87
2023/02/07 03:00:25;;;;;;;4.40;2.40;;;-5.90;97.30;;;;;;5008344;28;20189;-87
2023/02/07 03:03:09;;;;;;;3.30;3.10;;;-5.90;97.30;;;;;;5014452;28;20426;-87
2023/02/07 03:05:40;;;;;;;2.70;2.50;;;-5.90;97.30;;;;;;5022113;28;20588;-87
2023/02/07 03:08:29;;;;;;;3.13;2.93;;;-5.90;97.30;;;;;;5028584;28;20519;-87
2023/02/07 03:10:59;;;;;;;4.73;4.43;;;-5.90;97.30;;;;;;5014282;28;20473;-86
2023/02/07 03:13:35;;;;;;;3.13;2.93;;;-6.00;97.30;;;;;;5014312;28;20425;-86
2023/02/07 03:16:16;;;;;;;3.10;2.93;;;-6.00;97.30;;;;;;5017905;28;20734;-87
2023/02/07 03:18:46;;;;;;;2.73;2.53;;;-6.00;97.30;;;;;;5014560;28;20513;-87
2023/02/07 03:21:34;;;;;;;5.70;3.33;;;-6.10;97.30;;;;;;5022624;28;20511;-87
2023/02/07 03:24:05;;;;;;;3.27;3.13;;;-6.10;97.30;;;;;;5035226;28;20411;-87
2023/02/07 03:26:32;;;;;;;3.73;2.53;;;-6.10;97.30;;;;;;5047402;28;20461;-87
2023/02/07 03:28:59;;;;;;;1.53;1.43;;;-6.20;97.30;;;;;;5021921;28;20513;-87
2023/02/07 03:31:27;;;;;;;2.60;1.77;;;-6.20;97.30;;;;;;5014053;28;20462;-87
2023/02/07 03:34:01;;;;;;;4.03;3.83;;;-6.20;97.30;;;;;;5031244;28;20937;-87
2023/02/07 03:36:31;;;;;;;2.43;2.23;;;-6.20;97.30;;;;;;5030675;28;20504;-86
2023/02/07 03:38:57;;;;;;;6.43;4.03;;;-6.20;97.30;;;;;;5036412;28;20958;-88
2023/02/07 03:41:44;;;;;;;12.60;6.80;;;-6.20;97.30;;;;;;5017730;28;20421;-87
2023/02/07 03:44:13;;;;;;;2.20;2.00;;;-6.30;97.30;;;;;;5032293;28;20425;-87
2023/02/07 03:46:39;;;;;;;2.27;2.10;;;-6.30;97.30;;;;;;5014353;28;20516;-87
2023/02/07 03:49:06;;;;;;;2.93;2.73;;;-6.30;97.30;;;;;;5022458;28;20411;-86
2023/02/07 03:51:33;;;;;;;2.17;2.00;;;-6.30;97.30;;;;;;5040604;28;20199;-87
2023/02/07 03:53:58;;;;;;;1.90;1.80;;;-6.30;97.30;;;;;;5033568;28;20429;-86
2023/02/07 03:56:24;;;;;;;2.63;2.43;;;-6.40;97.30;;;;;;5017322;28;20453;-86
2023/02/07 03:58:49;;;;;;;2.40;2.20;;;-6.40;97.30;;;;;;5039906;28;20202;-87
2023/02/07 04:01:15;;;;;;;2.70;2.50;;;-6.40;97.30;;;;;;5012804;28;20177;-86
2023/02/07 04:03:43;;;;;;;5.27;2.47;;;-6.40;97.30;;;;;;5014352;28;20206;-87
2023/02/07 04:06:17;;;;;;;1.83;1.73;;;-6.40;97.30;;;;;;5031424;28;20206;-86
2023/02/07 04:08:46;;;;;;;1.57;1.30;;;-6.40;97.30;;;;;;5017197;28;20431;-86
2023/02/07 04:11:14;;;;;;;5.43;2.53;;;-6.40;97.30;;;;;;5030907;28;20987;-88
2023/02/07 04:13:46;;;;;;;3.50;2.70;;;-6.50;97.30;;;;;;5052747;28;20434;-87
2023/02/07 04:16:14;;;;;;;1.40;1.30;;;-6.50;97.30;;;;;;5024380;28;20430;-88
2023/02/07 04:18:42;;;;;;;2.90;2.73;;;-6.60;97.30;;;;;;5030279;28;20790;-88
2023/02/07 04:21:14;;;;;;;3.77;3.57;;;-6.60;97.30;;;;;;5028010;28;20422;-87
2023/02/07 04:23:43;;;;;;;12.90;3.70;;;-6.60;97.30;;;;;;5018545;28;20423;-87
2023/02/07 04:26:16;;;;;;;5.70;4.70;;;-6.60;97.30;;;;;;5021211;28;20504;-88
2023/02/07 04:28:45;;;;;;;12.50;3.17;;;-6.60;97.30;;;;;;5017024;28;20665;-88
2023/02/07 04:31:25;;;;;;;4.93;3.33;;;-6.60;97.30;;;;;;5020422;28;20702;-88
2023/02/07 04:33:57;;;;;;;3.90;3.70;;;-6.60;97.30;;;;;;5014887;28;20426;-88
2023/02/07 04:36:28;;;;;;;30.77;3.20;;;-6.60;97.30;;;;;;5026856;28;20976;-88
2023/02/07 04:38:54;;;;;;;3.43;3.23;;;-6.60;97.30;;;;;;5008343;28;20422;-88
2023/02/07 04:41:25;;;;;;;4.10;3.87;;;-6.70;97.30;;;;;;5014055;28;20418;-87
2023/02/07 04:43:51;;;;;;;4.00;3.80;;;-6.70;97.30;;;;;;5016625;28;20430;-87
2023/02/07 04:46:16;;;;;;;2.60;2.40;;;-6.80;97.30;;;;;;5015006;28;20477;-88
2023/02/07 04:48:41;;;;;;;3.67;3.47;;;-6.80;97.30;;;;;;5021783;28;20589;-87
2023/02/07 04:51:07;;;;;;;3.30;3.10;;;-6.80;97.30;;;;;;5016000;28;20226;-86
2023/02/07 04:53:33;;;;;;;2.80;2.33;;;-6.80;97.30;;;;;;5033785;28;20556;-87
2023/02/07 04:55:58;;;;;;;3.87;3.67;;;-6.90;97.30;;;;;;5014805;28;20744;-88
2023/02/07 04:58:24;;;;;;;2.27;2.07;;;-6.90;97.30;;;;;;5018530;28;20176;-87
2023/02/07 05:00:52;;;;;;;11.70;3.60;;;-6.80;97.30;;;;;;5022837;28;20226;-88
2023/02/07 05:03:25;;;;;;;1.87;1.73;;;-6.80;97.30;;;;;;5017777;28;20437;-87
2023/02/07 05:05:53;;;;;;;2.50;2.30;;;-6.70;97.30;;;;;;5013770;28;20967;-87
2023/02/07 05:08:19;;;;;;;7.17;2.53;;;-6.70;97.30;;;;;;5011539;28;20429;-87
2023/02/07 05:10:44;;;;;;;3.20;3.00;;;-6.70;97.30;;;;;;5022226;28;20453;-88
2023/02/07 05:13:10;;;;;;;5.00;3.20;;;-6.70;97.30;;;;;;5019756;28;20233;-86
2023/02/07 05:15:35;;;;;;;1.57;1.47;;;-6.70;97.30;;;;;;5035239;28;20205;-88
2023/02/07 05:18:04;;;;;;;2.70;2.50;;;-6.80;97.30;;;;;;5035161;28;20717;-86
2023/02/07 05:20:30;;;;;;;2.77;2.57;;;-6.80;97.30;;;;;;5017110;28;20187;-86
2023/02/07 05:22:55;;;;;;;2.30;2.13;;;-6.80;97.30;;;;;;5023952;28;20430;-86
2023/02/07 05:25:24;;;;;;;2.90;2.70;;;-6.80;97.30;;;;;;5020561;28;20227;-86
2023/02/07 05:27:52;;;;;;;4.23;3.97;;;-6.80;97.30;;;;;;5023856;28;20204;-86
2023/02/07 05:30:18;;;;;;;4.63;3.63;;;-6.80;97.30;;;;;;5016103;28;20821;-88
2023/02/07 05:35:27;;;;;;;5.03;3.83;;;-6.70;97.30;;;;;;5049776;28;20505;-88
2023/02/07 05:37:53;;;;;;;1.50;1.40;;;-6.70;97.30;;;;;;5027459;28;20429;-88
2023/02/07 05:40:19;;;;;;;3.67;3.50;;;-6.60;97.30;;;;;;5025002;28;20259;-87
2023/02/07 05:42:44;;;;;;;3.30;3.10;;;-6.50;97.30;;;;;;5018869;28;20183;-87
2023/02/07 05:45:10;;;;;;;5.17;4.83;;;-6.50;97.30;;;;;;5026699;28;20443;-87
2023/02/07 05:47:35;;;;;;;4.20;3.10;;;-6.40;97.30;;;;;;5018530;28;20188;-87
2023/02/07 05:50:01;;;;;;;2.87;2.67;;;-6.30;97.30;;;;;;5036307;28;20675;-87
2023/02/07 05:52:26;;;;;;;4.43;4.17;;;-6.30;97.30;;;;;;5015772;28;20192;-87
2023/02/07 05:54:52;;;;;;;2.97;2.77;;;-6.20;97.30;;;;;;5037057;28;20213;-87
2023/02/07 05:57:18;;;;;;;4.43;4.13;;;-6.10;97.30;;;;;;5018621;28;20169;-86
2023/02/07 05:59:43;;;;;;;9.53;5.60;;;-6.10;97.30;;;;;;5019551;28;20188;-87
2023/02/07 06:02:09;;;;;;;3.33;3.13;;;-6.00;97.30;;;;;;5022451;28;20807;-87
2023/02/07 06:04:35;;;;;;;3.60;3.17;;;-6.00;97.30;;;;;;5020866;28;20193;-87
2023/02/07 06:07:00;;;;;;;7.40;4.93;;;-5.90;97.30;;;;;;5024265;28;20241;-86
2023/02/07 06:09:26;;;;;;;3.10;2.90;;;-5.90;97.30;;;;;;5016913;28;20261;-87
2023/02/07 06:11:51;;;;;;;4.37;3.13;;;-5.90;97.30;;;;;;5016450;28;20220;-87
2023/02/07 06:14:17;;;;;;;3.60;3.40;;;-5.80;97.30;;;;;;5016427;28;20184;-87
2023/02/07 06:16:42;;;;;;;8.00;3.80;;;-5.80;97.30;;;;;;5016287;28;20638;-87
2023/02/07 06:19:10;;;;;;;3.73;3.53;;;-5.80;97.30;;;;;;5024357;28;20249;-87
2023/02/07 06:21:35;;;;;;;4.97;4.67;;;-5.80;97.30;;;;;;5016261;28;20219;-86
2023/02/07 06:24:00;;;;;;;2.30;2.10;;;-5.80;97.30;;;;;;5015770;28;20440;-87
2023/02/07 06:26:26;;;;;;;4.07;3.83;;;-5.80;97.30;;;;;;5016176;28;20241;-87
2023/02/07 06:28:51;;;;;;;1.70;1.60;;;-5.90;97.30;;;;;;5026901;28;20214;-87
2023/02/07 06:31:17;;;;;;;3.80;3.30;;;-5.90;97.30;;;;;;5039742;28;20215;-84
2023/02/07 06:33:42;;;;;;;2.87;2.73;;;-5.90;97.30;;;;;;5042198;28;20270;-87
2023/02/07 06:36:08;;;;;;;8.27;3.50;;;-5.90;97.30;;;;;;5027587;28;20193;-86
2023/02/07 06:38:34;;;;;;;14.87;8.20;;;-5.80;97.30;;;;;;5033607;28;20646;-86
2023/02/07 06:40:59;;;;;;;10.13;4.27;;;-5.80;97.30;;;;;;5024128;28;20208;-87
2023/02/07 06:43:25;;;;;;;5.07;4.77;;;-5.80;97.30;;;;;;5015890;28;20673;-87
2023/02/07 06:45:50;;;;;;;5.07;3.10;;;-5.70;97.30;;;;;;5017739;28;20201;-87
2023/02/07 06:48:16;;;;;;;7.50;4.10;;;-5.70;97.30;;;;;;5022821;28;20191;-88
2023/02/07 06:50:41;;;;;;;5.53;3.60;;;-5.70;97.30;;;;;;5016322;28;20228;-87
2023/02/07 06:53:06;;;;;;;2.83;2.60;;;-5.70;97.30;;;;;;5015618;28;20211;-87
2023/02/07 06:55:38;;;;;;;5.37;3.30;;;-5.80;97.30;;;;;;5016096;28;20207;-87
2023/02/07 06:58:04;;;;;;;1.70;1.60;;;-5.80;97.30;;;;;;5007829;28;20194;-87
2023/02/07 07:00:29;;;;;;;4.33;4.00;;;-5.80;97.30;;;;;;5017079;28;20758;-87
2023/02/07 07:02:55;;;;;;;3.33;3.13;;;-5.80;97.30;;;;;;5014153;28;20482;-87
2023/02/07 07:05:21;;;;;;;5.30;3.50;;;-5.80;97.30;;;;;;5021753;28;20576;-87
2023/02/07 07:07:47;;;;;;;4.10;3.87;;;-5.80;97.30;;;;;;5039975;28;20218;-87
2023/02/07 07:10:13;;;;;;;4.83;4.10;;;-5.80;97.30;;;;;;5021044;28;20720;-87
2023/02/07 07:12:38;;;;;;;2.43;2.23;;;-5.80;97.30;;;;;;5014581;28;20506;-87
2023/02/07 07:15:04;;;;;;;9.53;3.97;;;-5.70;97.30;;;;;;5026663;28;20662;-88
2023/02/07 07:17:29;;;;;;;10.57;5.17;;;-5.70;97.30;;;;;;5036437;28;20255;-88
2023/02/07 07:19:55;;;;;;;14.93;3.57;;;-5.60;97.30;;;;;;5025568;28;20429;-88
2023/02/07 07:22:20;;;;;;;2.50;2.30;;;-5.60;97.30;;;;;;5021145;28;20225;-86
2023/02/07 07:24:46;;;;;;;3.30;3.10;;;-5.60;97.30;;;;;;5014530;28;20180;-88
2023/02/07 07:27:12;;;;;;;4.30;3.77;;;-5.70;97.30;;;;;;5015808;28;20246;-88
2023/02/07 07:29:38;;;;;;;3.40;3.20;;;-5.70;97.30;;;;;;5020778;28;20186;-87
2023/02/07 07:32:04;;;;;;;5.20;3.83;;;-5.70;97.30;;;;;;5033071;28;20241;-86
2023/02/07 07:34:30;;;;;;;7.57;4.97;;;-5.70;97.30;;;;;;5045488;28;20441;-85
2023/02/07 07:36:55;;;;;;;8.73;4.17;;;-5.70;97.30;;;;;;5051414;28;20570;-85
2023/02/07 07:39:22;;;;;;;2.73;2.53;;;-5.70;97.30;;;;;;5019404;28;20212;-85
2023/02/07 07:41:48;;;;;;;7.90;4.87;;;-5.60;97.30;;;;;;5012457;28;20184;-88
2023/02/07 07:44:13;;;;;;;7.10;4.70;;;-5.50;97.30;;;;;;5014559;28;20942;-88
2023/02/07 07:46:39;;;;;;;7.00;4.83;;;-5.50;97.30;;;;;;5014819;28;20254;-87
2023/02/07 07:49:04;;;;;;;3.20;3.07;;;-5.40;97.30;;;;;;5030139;28;20669;-87
2023/02/07 07:51:30;;;;;;;5.03;3.30;;;-5.40;97.30;;;;;;5015135;28;20207;-88
2023/02/07 07:53:55;;;;;;;13.60;4.53;;;-5.30;97.30;;;;;;5016781;28;20180;-87
2023/02/07 07:56:21;;;;;;;4.37;4.07;;;-5.20;97.30;;;;;;5022440;28;20315;-87
2023/02/07 07:58:47;;;;;;;2.90;2.70;;;-5.20;97.30;;;;;;5031592;28;20183;-86
2023/02/07 08:01:13;;;;;;;3.33;3.13;;;-5.20;97.30;;;;;;5015156;28;20286;-86
2023/02/07 08:03:39;;;;;;;5.00;4.70;;;-5.20;97.30;;;;;;5014692;28;20423;-86
2023/02/07 08:06:05;;;;;;;7.80;4.10;;;-5.10;97.30;;;;;;5022775;28;20998;-86
2023/02/07 08:08:30;;;;;;;5.47;3.70;;;-5.10;97.30;;;;;;5014592;28;20681;-87
2023/02/07 08:11:04;;;;;;;3.83;3.40;;;-5.10;97.30;;;;;;5014674;28;20471;-86
2023/02/07 08:13:30;;;;;;;3.37;2.27;;;-5.10;97.30;;;;;;5015043;28;20635;-86
2023/02/07 08:15:55;;;;;;;9.80;5.10;;;-5.00;97.30;;;;;;5052263;28;20514;-87
2023/02/07 08:18:21;;;;;;;4.00;3.23;;;-5.00;97.30;;;;;;5041306;28;20175;-87
2023/02/07 08:20:48;;;;;;;14.50;5.87;;;-5.00;97.30;;;;;;5038644;28;20199;-87
2023/02/07 08:23:13;;;;;;;14.13;7.07;;;-5.00;97.30;;;;;;5046521;28;20179;-87
2023/02/07 08:25:40;;;;;;;11.80;5.60;;;-5.00;97.30;;;;;;5038902;28;20474;-87
2023/02/07 08:28:06;;;;;;;6.00;2.47;;;-4.90;97.30;;;;;;5023696;28;20188;-87
2023/02/07 08:30:32;;;;;;;5.00;4.33;;;-4.80;97.30;;;;;;5022332;28;20469;-87
2023/02/07 08:32:57;;;;;;;3.97;3.77;;;-4.90;97.30;;;;;;5015660;28;20181;-87
2023/02/07 08:35:23;;;;;;;7.50;4.70;;;-5.00;97.30;;;;;;5017463;28;20466;-86
2023/02/07 08:37:49;;;;;;;3.97;3.77;;;-4.90;97.30;;;;;;5030905;28;20177;-86
2023/02/07 08:40:15;;;;;;;4.40;3.03;;;-4.90;97.30;;;;;;5010135;28;20721;-87
2023/02/07 08:42:40;;;;;;;4.07;3.13;;;-4.80;97.30;;;;;;5013786;28;20552;-85
2023/02/07 08:45:07;;;;;;;3.00;2.80;;;-4.70;97.30;;;;;;5051795;28;20196;-86
2023/02/07 08:47:32;;;;;;;3.93;3.73;;;-4.70;97.30;;;;;;5021160;28;20693;-87
2023/02/07 08:49:58;;;;;;;9.50;5.43;;;-4.70;97.30;;;;;;5025854;28;20415;-87
2023/02/07 08:52:23;;;;;;;16.23;6.60;;;-4.60;97.30;;;;;;5017600;28;20277;-86
2023/02/07 08:54:49;;;;;;;5.17;3.53;;;-4.60;97.30;;;;;;5036136;28;20653;-86
2023/02/07 08:57:15;;;;;;;5.00;4.03;;;-4.60;97.30;;;;;;5024807;28;20181;-86
2023/02/07 08:59:40;;;;;;;7.40;6.57;;;-4.50;97.30;;;;;;5018050;28;20242;-87
2023/02/07 09:02:06;;;;;;;13.03;6.40;;;-4.50;97.30;;;;;;5017484;28;20418;-87
2023/02/07 09:04:31;;;;;;;4.80;4.50;;;-4.50;97.30;;;;;;5017646;28;20531;-87
2023/02/07 09:06:57;;;;;;;4.87;4.17;;;-4.50;97.30;;;;;;5025295;28;20192;-86
2023/02/07 09:09:23;;;;;;;10.73;7.37;;;-4.50;97.30;;;;;;5017464;28;20197;-87
2023/02/07 09:11:49;;;;;;;6.83;4.63;;;-4.50;97.30;;;;;;5035322;28;20249;-87
2023/02/07 09:14:15;;;;;;;5.17;4.77;;;-4.50;97.30;;;;;;5024138;28;20423;-87
2023/02/07 09:16:41;;;;;;;2.77;2.57;;;-4.40;97.30;;;;;;5035979;28;20196;-87
2023/02/07 09:19:06;;;;;;;7.77;7.37;;;-4.40;97.30;;;;;;5035024;28;20176;-87
2023/02/07 09:21:32;;;;;;;5.50;4.90;;;-4.30;97.30;;;;;;5019507;28;20795;-87
2023/02/07 09:23:57;;;;;;;19.43;4.60;;;-4.30;97.30;;;;;;5026660;28;20184;-86
2023/02/07 09:26:25;;;;;;;6.87;5.13;;;-4.20;97.30;;;;;;5032561;28;20243;-87
2023/02/07 09:28:51;;;;;;;4.10;3.53;;;-4.30;97.30;;;;;;5035271;28;20183;-86
2023/02/07 09:31:17;;;;;;;3.30;3.00;;;-4.20;97.30;;;;;;5018308;28;20462;-87
2023/02/07 09:33:42;;;;;;;6.20;4.53;;;-4.10;97.30;;;;;;5020483;28;20447;-87
2023/02/07 09:36:28;;;;;;;6.40;4.60;;;-4.10;97.30;;;;;;5033187;28;20577;-87
2023/02/07 09:38:55;;;;;;;4.83;4.53;;;-4.10;97.30;;;;;;5025878;28;20196;-87
2023/02/07 09:41:35;;;;;;;5.33;3.27;;;-4.10;97.30;;;;;;5025984;28;20549;-87
2023/02/07 09:44:08;;;;;;;3.50;3.30;;;-4.00;97.30;;;;;;5017713;28;20419;-87
2023/02/07 09:46:39;;;;;;;6.07;4.37;;;-3.90;97.30;;;;;;5016644;28;20474;-87
2023/02/07 09:49:33;;;;;;;12.87;6.20;;;-3.90;97.30;;;;;;5053869;28;20457;-87
2023/02/07 09:52:01;;;;;;;5.30;5.00;;;-3.90;97.30;;;;;;5017490;28;20874;-87
2023/02/07 09:54:32;;;;;;;11.27;4.23;;;-3.90;97.30;;;;;;5035612;28;20419;-87
2023/02/07 09:57:02;;;;;;;13.33;6.27;;;-3.90;97.30;;;;;;5020634;28;20453;-86
2023/02/07 09:59:42;;;;;;;10.20;5.07;;;-3.90;97.30;;;;;;5021438;28;21003;-87
2023/02/07 10:02:23;;;;;;;6.30;4.30;;;-3.90;97.30;;;;;;5016383;28;20425;-86
2023/02/07 10:04:51;;;;;;;15.97;3.80;;;-3.90;97.30;;;;;;5017252;28;20443;-86
2023/02/07 10:07:17;;;;;;;7.13;6.70;;;-3.90;97.30;;;;;;5045901;28;20478;-86
2023/02/07 10:09:45;;;;;;;14.03;5.13;;;-3.90;97.30;;;;;;5040902;28;20426;-86
2023/02/07 10:12:32;;;;;;;9.93;5.53;;;-3.80;97.30;;;;;;5042184;28;20291;-86
2023/02/07 10:15:12;;;;;;;5.27;3.73;;;-3.70;97.30;;;;;;5016298;28;20959;-86
2023/02/07 10:17:47;;;;;;;10.00;5.57;;;-3.70;97.30;;;;;;5016316;28;20518;-87
2023/02/07 10:20:29;;;;;;;6.57;4.70;;;-3.60;97.30;;;;;;5034535;28;20421;-86
2023/02/07 10:23:13;;;;;;;3.60;3.40;;;-3.60;97.30;;;;;;5034093;28;20434;-87
2023/02/07 10:26:03;;;;;;;6.93;4.30;;;-3.70;97.30;;;;;;5013859;28;20534;-86
2023/02/07 10:28:50;;;;;;;5.70;5.40;;;-3.60;97.30;;;;;;5018573;28;20428;-87
2023/02/07 10:31:17;;;;;;;7.03;4.67;;;-3.70;97.30;;;;;;4980973;28;20463;-86
2023/02/07 10:33:49;;;;;;;5.73;5.50;;;-3.60;97.30;;;;;;4996761;28;20707;-86
2023/02/07 10:36:15;;;;;;;27.77;8.30;;;-3.60;97.30;;;;;;5006583;28;20565;-86
2023/02/07 10:38:56;;;;;;;4.33;4.07;;;-3.50;97.30;;;;;;4996276;28;20416;-86
2023/02/07 10:41:38;;;;;;;3.67;3.40;;;-3.40;97.30;;;;;;4990913;28;20436;-86
2023/02/07 10:44:16;;;;;;;4.60;4.30;;;-3.40;97.30;;;;;;4997562;28;20424;-86
2023/02/07 10:46:44;;;;;;;3.23;3.03;;;-3.40;97.30;;;;;;4996852;28;20996;-86
2023/02/07 10:49:19;;;;;;;5.03;4.70;;;-3.40;97.30;;;;;;4997145;28;20424;-86
2023/02/07 10:51:45;;;;;;;8.57;8.17;;;-3.20;97.30;;;;;;5021540;28;20455;-86
2023/02/07 10:54:19;;;;;;;6.90;4.60;;;-3.20;97.30;;;;;;5007329;28;20886;-86
2023/02/07 10:56:59;;;;;;;6.10;5.83;;;-3.20;97.30;;;;;;4999014;28;20431;-86
2023/02/07 10:59:44;;;;;;;9.67;4.97;;;-3.20;97.30;;;;;;5001512;28;20510;-86
2023/02/07 11:02:30;;;;;;;12.00;3.70;;;-3.10;97.30;;;;;;4987528;28;20439;-86
2023/02/07 11:04:57;;;;;;;4.47;2.87;;;-3.10;97.30;;;;;;5012070;28;20486;-86
2023/02/07 11:07:24;;;;;;;8.60;6.07;;;-3.20;97.30;;;;;;4995262;28;20424;-86
2023/02/07 11:09:50;;;;;;;5.40;5.10;;;-3.10;97.30;;;;;;4994369;28;20490;-86
2023/02/07 11:12:21;;;;;;;11.20;6.10;;;-3.10;97.30;;;;;;4996121;28;20491;-86
2023/02/07 11:15:06;;;;;;;4.57;4.13;;;-3.00;97.30;;;;;;4995141;28;20231;-86
2023/02/07 11:17:34;;;;;;;5.60;3.67;;;-3.00;97.30;;;;;;5007182;28;21024;-86
2023/02/07 11:20:22;;;;;;;29.17;5.80;;;-2.90;97.30;;;;;;5003223;28;20498;-86
2023/02/07 11:22:54;;;;;;;3.00;2.80;;;-2.90;97.30;;;;;;4995107;28;20416;-85
2023/02/07 11:25:28;;;;;;;3.53;3.33;;;-2.90;97.30;;;;;;4998955;28;20490;-86
2023/02/07 11:27:54;;;;;;;5.57;4.20;;;-2.90;97.30;;;;;;4997954;28;20420;-86
2023/02/07 11:30:21;;;;;;;2.73;2.53;;;-2.80;97.30;;;;;;5024294;28;20419;-86
2023/02/07 11:32:56;;;;;;;4.13;3.83;;;-2.80;97.30;;;;;;5011415;28;20181;-86
2023/02/07 11:35:22;;;;;;;19.00;6.57;;;-2.80;97.30;;;;;;5009528;28;20494;-86
2023/02/07 11:38:12;;;;;;;2.80;2.60;;;-2.70;97.30;;;;;;4994864;28;20416;-86
2023/02/07 11:40:40;;;;;;;8.70;5.20;;;-2.70;97.30;;;;;;4990293;28;20181;-86
2023/02/07 11:43:08;;;;;;;9.40;4.53;;;-2.70;97.30;;;;;;5003162;28;20431;-86
2023/02/07 11:45:36;;;;;;;3.73;3.40;;;-2.70;97.30;;;;;;5001410;28;20529;-87
2023/02/07 11:48:03;;;;;;;2.90;2.47;;;-2.70;97.30;;;;;;4998480;28;20432;-86
2023/02/07 11:50:33;;;;;;;13.23;6.03;;;-2.70;97.30;;;;;;5006566;28;20518;-87
2023/02/07 11:53:00;;;;;;;8.97;6.13;;;-2.60;97.30;;;;;;5006913;28;20794;-87
2023/02/07 11:55:31;;;;;;;7.90;4.97;;;-2.60;97.30;;;;;;5006897;28;20439;-86
2023/02/07 11:58:07;;;;;;;5.90;4.00;;;-2.60;97.30;;;;;;4998803;28;20424;-86
2023/02/07 12:00:36;;;;;;;5.03;3.90;;;-2.70;97.30;;;;;;5008474;28;20538;-86
2023/02/07 12:03:17;;;;;;;25.27;4.20;;;-2.60;97.30;;;;;;4996849;28;20428;-86
2023/02/07 12:05:44;;;;;;;6.67;5.40;;;-2.60;97.30;;;;;;5006536;28;20497;-86
2023/02/07 12:08:26;;;;;;;10.10;5.53;;;-2.50;97.30;;;;;;5024317;28;20502;-86
2023/02/07 12:11:15;;;;;;;5.33;4.93;;;-2.50;97.30;;;;;;5006785;28;20471;-86
2023/02/07 12:13:48;;;;;;;29.37;8.63;;;-2.50;97.30;;;;;;5009756;28;20518;-87
2023/02/07 12:16:34;;;;;;;5.53;4.70;;;-2.50;97.30;;;;;;5015298;28;20443;-87
2023/02/07 12:19:11;;;;;;;9.07;6.37;;;-2.50;97.30;;;;;;4997598;28;20439;-86
2023/02/07 12:21:46;;;;;;;7.27;6.60;;;-2.40;97.30;;;;;;4999279;28;20431;-86
2023/02/07 12:24:23;;;;;;;12.37;6.10;;;-2.40;97.30;;;;;;4994448;28;20933;-86
2023/02/07 12:27:03;;;;;;;8.20;4.73;;;-2.30;97.30;;;;;;5014966;28;20474;-87
2023/02/07 12:29:53;;;;;;;7.40;6.60;;;-2.20;97.30;;;;;;5008163;28;20496;-87
2023/02/07 12:32:53;;;;;;;15.73;4.50;;;-2.20;97.30;;;;;;5006368;28;20462;-86
2023/02/07 12:35:57;;;;;;;10.37;7.83;;;-2.20;97.30;;;;;;5014084;28;20442;-87
2023/02/07 12:38:26;;;;;;;6.90;5.40;;;-2.10;97.30;;;;;;5014789;28;20422;-86
2023/02/07 12:40:58;;;;;;;8.50;8.03;;;-2.20;97.30;;;;;;5048330;28;20437;-86
2023/02/07 12:43:27;;;;;;;11.10;6.50;;;-2.20;97.30;;;;;;5020693;28;20427;-87
2023/02/07 12:46:09;;;;;;;4.50;4.20;;;-2.20;97.30;;;;;;5013556;28;20475;-86
2023/02/07 12:48:59;;;;;;;10.10;6.47;;;-2.20;97.30;;;;;;5020172;28;20512;-87
2023/02/07 12:52:11;;;;;;;6.63;4.73;;;-2.20;97.30;;;;;;5006614;28;20447;-86
2023/02/07 12:54:55;;;;;;;9.83;7.10;;;-2.20;97.30;;;;;;5013826;28;20418;-86
2023/02/07 12:57:36;;;;;;;12.57;4.77;;;-2.20;97.30;;;;;;5027955;28;20420;-86
2023/02/07 13:00:18;;;;;;;8.93;5.10;;;-2.20;97.30;;;;;;5042581;28;20476;-86
2023/02/07 13:02:49;;;;;;;13.30;5.03;;;-2.20;97.30;;;;;;5018723;28;20955;-86
2023/02/07 13:05:21;;;;;;;23.43;5.40;;;-2.20;97.30;;;;;;5025647;28;20789;-86